CheckWX is a tool to help pilots better visualize weather data.  It is not intended as a substitute for an official pre-flight weather briefing.

17:54:57 UTC

LEZG TAF
Zaragoza Air Base Airport
Zaragoza, Spain
TAF LEZG 051700Z 0518/0618 11010KT 9999 FEW030 TX17/0612Z TN09/0606Z TEMPO 0600/0612 3000 RA SHRA FEW010TCU BKN030 TEMPO 0614/0618 3000 RA SHRA FEW010TCU BKN030 BECMG 0614/0616 VRB04KT

Apr-5@
18:00 UTC

Apr-5 @ 18:00 UTC

Apr-6@
14:00 UTC

Apr-6 @ 14:00 UTC

TAF LEZG 051700Z 0518/0618 11010KT 9999 FEW030 TX17/0612Z TN09/0606Z

Expired

Wind
  • 110° at 10 KTS
Cloud Levels
  • Few at 3,000' AGL

Apr-6@
00:00 UTC

Apr-6 @ 00:00 UTC

Apr-6@
12:00 UTC

Apr-6 @ 12:00 UTC

TEMPO 0600/0612 3000 RA SHRA FEW010TCU BKN030

Expired

Conditions
Rain, Showers, Rain
Cloud Levels
  • Few at 1,000' AGL
  • Broken at 3,000' AGL

Apr-6@
14:00 UTC

Apr-6 @ 14:00 UTC

Apr-6@
18:00 UTC

Apr-6 @ 18:00 UTC

TEMPO 0614/0618 3000 RA SHRA FEW010TCU BKN030

Temporary

Temporary Changes expected for less than half the time period

Conditions
Rain, Showers, Rain
Cloud Levels
  • Few at 1,000' AGL
  • Broken at 3,000' AGL

Apr-6@
14:00 UTC

Apr-6 @ 14:00 UTC

Apr-6@
18:00 UTC

Apr-6 @ 18:00 UTC

BECMG 0614/0616 VRB04KT

Becoming

Becoming Conditions expected by Mon, Apr 6, 2020 @ 16:00 UTC

Wind
  • Variable at 4 KTS
Cloud Levels
  • Few at 3,000' AGL